首页
METAR-TAF:

METAR-TAF

机场 :

布瓊布拉國際機場

布琼布拉, 布隆迪

纬度: 03-19S, 经度: 029-19E, 海拔: 782米

METAR: 丢失

时间: 11:08 (09:08 UTC)

预报

该预报发布于4小时和8分钟前的05:00 UTC
预报有效从19日的 06点(UTC)到 20日的 12点(UTC)
风速2节,风向
能见度10公里或以上
少量云层高于2500英尺
多云层高于10000英尺
成为
从 19日的 07点(UTC)到 19日的 09点(UTC)
风速15节,风向,有时为25节阵风
能见度10公里或以上
少量云层高于2500英尺
少量云层高于3000英尺, 积雨云.
多云层高于10000英尺
几率 30% :
短暂存在
从 19日的 14点(UTC)到 19日的 24点(UTC)
风速15节,风向,有时为25节阵风
能見度: 5000
散云层高于2500英尺, 积雨云.
多云层高于10000英尺
雷暴, 雨, 阵雨
成为
从 20日的 02点(UTC)到 20日的 04点(UTC)
风速3节,风向
能见度10公里或以上
少量云层高于2500英尺
多云层高于10000英尺
成为
从 20日的 07点(UTC)到 20日的 09点(UTC)
风速10节,风向,有时为25节阵风
能见度10公里或以上
少量云层高于2500英尺
少量云层高于3000英尺, 积雨云.
多云层高于10000英尺

TAF: HBBA 190500Z 1906/2012 36002KT 9999 FEW025 BKN100 BECMG 1907/1909 18015G25KT 9999 FEW025 FEW030CB BKN100 PROB30 TEMPO 1914/1924 08015G25KT 5000 TSRA OR SHRA SCT025CB BKN100 BECMG 2002/2004 36003KT 9999 FEW025 BKN100 BECMG 2007/2009 18010G25KT 9999 FEW025 FEW030CB BKN100

超过4000个机场的气象观测和天气预报(METAR&TAF报告)。

可查询的气象台以黄色和红色小点在地图上表示。

将鼠标移到小点上方,可查看气象台名称。

然后点击查看天气观测和预报。

如需切换地图:点击带黑十字的绿色按钮放大地图;点击带横线的绿色按钮缩小地图;或者点击绿色箭头查看邻近地区的地图。


METAR-TAF: